Port Isabel, Texas
Current Conditions -  °F | °C
As of 7:53 PM on Saturday 25 Oct 2014 (Local Time) from KPIL Reporting Station
Clear Clear  
Wind Chill: 73°   Ceiling: Unl
Heat Index: 73°   Visibility: 9mi
Dew Point: 63°   Wind: 6mph
Humidity: 71%   Direction: 90°E
Pressure: 30.09"   Gusts: NA
Location:  26.07°N, 97.21°W
Report Text: KPIL 260053Z AUTO 09005KT 9SM CLR 23/17 A3009 RMK AO2 SLP189 T02280172
Loading
Personal Weather Stations






























Interactive Weather Map New forecast layout! Learn more

10-Day Weather Forecast

Advertisements
Track Severe Weather on mobile